createdAt,value
2019-05-21T00:00:59.084Z,21.80
2019-05-21T00:01:57.365Z,21.60
2019-05-21T00:03:03.097Z,21.20
2019-05-21T00:04:27.850Z,21.00
2019-05-21T00:05:17.653Z,21.60
2019-05-21T00:06:22.359Z,22.80
2019-05-21T00:07:31.176Z,22.10
2019-05-21T00:08:19.342Z,21.90
2019-05-21T00:09:35.489Z,21.70
2019-05-21T00:10:27.404Z,21.60
2019-05-21T00:11:52.507Z,22.80
2019-05-21T00:12:35.609Z,21.90
2019-05-21T00:13:49.338Z,22.60
2019-05-21T00:14:58.458Z,21.60
2019-05-21T00:16:36.455Z,22.30
2019-05-21T00:16:58.477Z,22.00
2019-05-21T00:18:50.612Z,21.40
2019-05-21T00:19:28.489Z,20.90
2019-05-21T00:20:34.735Z,21.10
2019-05-21T00:21:38.641Z,21.20
2019-05-21T00:22:45.611Z,20.20
2019-05-21T00:24:01.595Z,19.60
2019-05-21T00:25:06.724Z,20.10
2019-05-21T00:25:53.742Z,20.80
2019-05-21T00:27:23.733Z,19.60
2019-05-21T00:28:12.780Z,20.20
2019-05-21T00:29:50.482Z,20.00
2019-05-21T00:30:35.734Z,19.50
2019-05-21T00:31:46.082Z,20.60
2019-05-21T00:32:19.671Z,19.60
2019-05-21T00:33:58.901Z,19.20
2019-05-21T00:34:41.691Z,19.00
2019-05-21T00:35:58.091Z,18.80
2019-05-21T00:36:55.851Z,18.50
2019-05-21T00:38:33.126Z,18.60
2019-05-21T00:39:29.250Z,18.00
2019-05-21T00:40:37.030Z,17.40
2019-05-21T00:41:38.061Z,17.00
2019-05-21T00:42:24.038Z,17.50
2019-05-21T00:43:34.083Z,17.60
2019-05-21T00:44:33.065Z,17.30
2019-05-21T00:45:27.446Z,16.70
2019-05-21T00:47:30.216Z,17.40
2019-05-21T00:48:24.185Z,17.60
2019-05-21T00:48:53.523Z,16.60
2019-05-21T00:50:53.421Z,16.60
2019-05-21T00:51:13.449Z,16.70
2019-05-21T00:52:47.354Z,16.50
2019-05-21T00:53:48.384Z,16.10
2019-05-21T00:54:50.240Z,15.80
2019-05-21T00:55:50.455Z,16.10
2019-05-21T00:57:26.705Z,16.10
2019-05-21T00:58:27.425Z,15.70
2019-05-21T00:59:00.605Z,16.00
2019-05-21T01:00:55.138Z,16.00
2019-05-21T01:01:51.515Z,15.80
2019-05-21T01:03:52.962Z,15.20
2019-05-21T01:05:21.812Z,16.50
2019-05-21T01:06:45.867Z,16.10
2019-05-21T01:07:26.360Z,15.70
2019-05-21T01:08:46.949Z,15.90
2019-05-21T01:09:22.485Z,15.70
2019-05-21T01:10:38.669Z,15.80
2019-05-21T01:12:30.497Z,15.30
2019-05-21T01:13:11.964Z,14.90
2019-05-21T01:14:10.853Z,14.90
2019-05-21T01:16:03.923Z,15.10
2019-05-21T01:17:26.354Z,15.10
2019-05-21T01:18:10.055Z,15.20
2019-05-21T01:19:48.561Z,16.00
2019-05-21T01:20:45.087Z,16.30
2019-05-21T01:22:23.089Z,15.50
2019-05-21T01:23:49.820Z,15.40
2019-05-21T01:24:59.047Z,15.90
2019-05-21T01:25:49.320Z,16.00
2019-05-21T01:26:56.396Z,16.10
2019-05-21T01:28:47.394Z,15.20
2019-05-21T01:30:21.091Z,16.00
2019-05-21T01:31:31.237Z,15.60
2019-05-21T01:32:03.907Z,15.70
2019-05-21T01:33:01.556Z,15.50
2019-05-21T01:34:23.281Z,15.90
2019-05-21T01:35:43.246Z,16.50
2019-05-21T01:36:34.650Z,15.20
2019-05-21T01:37:41.209Z,15.00
2019-05-21T01:39:09.785Z,15.90
2019-05-21T01:40:12.363Z,14.90
2019-05-21T01:40:45.842Z,15.00
2019-05-21T01:41:53.732Z,15.00
2019-05-21T01:42:59.574Z,15.20
2019-05-21T01:44:16.280Z,14.40
2019-05-21T01:45:08.805Z,14.40
2019-05-21T01:46:39.521Z,14.10
2019-05-21T01:47:13.463Z,14.40
2019-05-21T01:48:37.509Z,14.70
2019-05-21T01:49:58.300Z,14.40
2019-05-21T01:50:59.121Z,14.40
2019-05-21T01:51:56.975Z,14.40
2019-05-21T01:53:18.898Z,13.80
2019-05-21T01:54:12.656Z,14.10
2019-05-21T01:56:03.868Z,13.90
2019-05-21T01:56:52.302Z,14.50
2019-05-21T01:57:58.758Z,13.90
2019-05-21T01:59:10.130Z,14.00
2019-05-21T01:59:41.670Z,14.40
2019-05-21T02:01:03.907Z,13.60
2019-05-21T02:02:29.915Z,14.10
2019-05-21T02:03:43.753Z,14.30
2019-05-21T02:04:06.271Z,16.00
2019-05-21T02:05:33.532Z,15.20
2019-05-21T02:06:30.249Z,14.70
2019-05-21T02:07:29.845Z,15.90
2019-05-21T02:08:45.314Z,14.90
2019-05-21T02:09:55.364Z,15.90
2019-05-21T02:11:05.091Z,16.20
2019-05-21T02:12:17.395Z,16.30
2019-05-21T02:13:06.640Z,16.50
2019-05-21T02:14:02.245Z,16.20
2019-05-21T02:15:16.286Z,16.70
2019-05-21T02:16:26.432Z,17.00
2019-05-21T02:17:14.863Z,17.00
2019-05-21T02:18:23.574Z,17.20
2019-05-21T02:20:01.058Z,17.40
2019-05-21T02:20:42.326Z,17.50
2019-05-21T02:21:56.363Z,17.50
2019-05-21T02:23:04.869Z,16.80
2019-05-21T02:24:19.622Z,17.30
2019-05-21T02:25:05.500Z,17.70
2019-05-21T02:26:09.332Z,18.20
2019-05-21T02:27:20.768Z,17.50
2019-05-21T02:28:19.849Z,18.10
2019-05-21T02:29:36.041Z,18.70
2019-05-21T02:30:39.533Z,19.40
2019-05-21T02:31:28.884Z,19.10
2019-05-21T02:32:44.968Z,19.10
2019-05-21T02:33:59.517Z,20.70
2019-05-21T02:35:13.758Z,19.60
2019-05-21T02:36:01.997Z,20.40
2019-05-21T02:36:52.884Z,20.70
2019-05-21T02:37:51.248Z,20.60
2019-05-21T02:38:59.965Z,20.40
2019-05-21T02:40:32.323Z,21.10
2019-05-21T02:41:36.025Z,21.90
2019-05-21T02:42:58.350Z,22.90
2019-05-21T02:43:45.970Z,22.70
2019-05-21T02:44:54.050Z,22.20
2019-05-21T02:45:48.742Z,23.10
2019-05-21T02:46:57.146Z,23.40
2019-05-21T02:48:18.352Z,24.00
2019-05-21T02:49:07.097Z,23.70
2019-05-21T02:50:06.284Z,24.70
2019-05-21T02:51:20.933Z,24.80
2019-05-21T02:52:44.404Z,25.10
2019-05-21T02:53:25.967Z,25.60
2019-05-21T02:54:41.703Z,25.80
2019-05-21T02:55:51.164Z,27.20
2019-05-21T02:56:48.416Z,28.00
2019-05-21T02:58:15.049Z,28.90
2019-05-21T02:58:52.316Z,29.60
2019-05-21T03:00:08.091Z,28.80
2019-05-21T03:01:26.939Z,30.10
2019-05-21T03:02:29.507Z,29.10
2019-05-21T03:03:19.477Z,30.60
2019-05-21T03:04:29.455Z,31.50
2019-05-21T03:05:44.280Z,31.90
2019-05-21T03:06:36.600Z,31.90
2019-05-21T03:07:45.728Z,31.90
2019-05-21T03:08:54.743Z,32.40
2019-05-21T03:10:04.983Z,32.30
2019-05-21T03:11:08.476Z,32.80
2019-05-21T03:12:10.227Z,32.60
2019-05-21T03:13:19.445Z,33.60
2019-05-21T03:14:11.771Z,33.50
2019-05-21T03:15:11.674Z,33.60
2019-05-21T03:16:29.913Z,32.90
2019-05-21T03:17:22.648Z,33.30
2019-05-21T03:18:48.559Z,33.60
2019-05-21T03:19:30.649Z,34.70
2019-05-21T03:20:48.777Z,35.20
2019-05-21T03:22:01.381Z,32.70
2019-05-21T03:22:59.849Z,33.60
2019-05-21T03:23:57.308Z,33.80
2019-05-21T03:25:08.059Z,33.60
2019-05-21T03:26:09.727Z,33.60
2019-05-21T03:27:20.992Z,33.50
2019-05-21T03:28:41.768Z,33.40
2019-05-21T03:29:26.927Z,33.30
2019-05-21T03:30:33.901Z,32.50
2019-05-21T03:31:49.169Z,34.70
2019-05-21T03:33:00.125Z,33.50
2019-05-21T03:33:54.707Z,33.70
2019-05-21T03:35:16.642Z,33.30
2019-05-21T03:35:53.697Z,34.40
2019-05-21T03:37:09.986Z,34.20
2019-05-21T03:38:15.318Z,33.30
2019-05-21T03:39:36.726Z,32.40
2019-05-21T03:40:32.325Z,33.00
2019-05-21T03:41:23.425Z,34.00
2019-05-21T03:42:42.900Z,32.30
2019-05-21T03:43:43.207Z,33.60
2019-05-21T03:44:58.844Z,32.40
2019-05-21T03:45:51.306Z,33.10
2019-05-21T03:46:49.879Z,32.60
2019-05-21T03:47:49.886Z,32.00
2019-05-21T03:49:10.697Z,32.80
2019-05-21T03:50:11.505Z,32.00
2019-05-21T03:51:46.226Z,32.00
2019-05-21T03:52:18.383Z,31.60
2019-05-21T03:53:20.538Z,30.80
2019-05-21T03:54:41.335Z,31.60
2019-05-21T03:56:10.727Z,31.40
2019-05-21T03:56:57.627Z,30.60
2019-05-21T03:58:18.423Z,29.90
2019-05-21T03:59:08.683Z,30.20
2019-05-21T04:00:09.324Z,30.30
2019-05-21T04:01:06.871Z,29.50
2019-05-21T04:02:27.668Z,30.30
2019-05-21T04:03:53.783Z,30.10
2019-05-21T04:04:13.827Z,29.50
2019-05-21T04:06:00.455Z,30.00
2019-05-21T04:06:52.704Z,30.30
2019-05-21T04:08:02.225Z,29.40
2019-05-21T04:08:56.450Z,29.70
2019-05-21T04:09:45.529Z,28.20
2019-05-21T04:11:13.907Z,29.70
2019-05-21T04:12:09.709Z,29.20
2019-05-21T04:13:08.430Z,28.80
2019-05-21T04:14:16.501Z,27.80
2019-05-21T04:15:41.166Z,30.20
2019-05-21T04:16:21.208Z,28.70
2019-05-21T04:17:43.032Z,29.00
2019-05-21T04:18:54.093Z,29.10
2019-05-21T04:20:10.998Z,28.60
2019-05-21T04:20:47.037Z,28.80
2019-05-21T04:21:49.914Z,30.00
2019-05-21T04:23:09.074Z,29.10
2019-05-21T04:24:24.749Z,28.70
2019-05-21T04:25:09.084Z,28.60
2019-05-21T04:26:31.118Z,29.80
2019-05-21T04:27:31.024Z,28.80
2019-05-21T04:28:37.265Z,29.30
2019-05-21T04:29:29.082Z,29.60
2019-05-21T04:30:40.248Z,28.60
2019-05-21T04:31:46.910Z,29.20
2019-05-21T04:32:53.676Z,29.50
2019-05-21T04:33:55.427Z,27.60
2019-05-21T04:35:04.341Z,27.80
2019-05-21T04:36:10.999Z,28.40
2019-05-21T04:37:12.069Z,28.90
2019-05-21T04:38:19.415Z,28.00
2019-05-21T04:39:29.484Z,27.60
2019-05-21T04:40:40.115Z,27.10
2019-05-21T04:41:35.202Z,25.00
2019-05-21T04:42:51.394Z,25.60
2019-05-21T04:43:44.128Z,26.10
2019-05-21T04:44:53.249Z,25.50
2019-05-21T04:46:03.911Z,25.90
2019-05-21T04:47:07.495Z,25.60
2019-05-21T04:48:00.229Z,26.30
2019-05-21T04:49:24.197Z,27.00
2019-05-21T04:50:26.457Z,26.90
2019-05-21T04:51:28.207Z,26.50
2019-05-21T04:52:37.427Z,26.90
2019-05-21T04:53:37.436Z,26.00
2019-05-21T04:54:48.603Z,26.30
2019-05-21T04:55:49.671Z,25.50
2019-05-21T04:56:33.872Z,26.60
2019-05-21T04:58:11.460Z,26.00
2019-05-21T04:59:12.499Z,26.00
2019-05-21T05:00:06.779Z,26.20
2019-05-21T05:01:26.845Z,25.40
2019-05-21T05:02:33.707Z,25.60
2019-05-21T05:03:27.776Z,25.20
2019-05-21T05:04:34.910Z,25.00
2019-05-21T05:05:41.820Z,24.40
2019-05-21T05:06:52.473Z,24.70
2019-05-21T05:07:36.917Z,25.10
2019-05-21T05:09:03.862Z,25.30
2019-05-21T05:10:03.974Z,24.50
2019-05-21T05:10:55.780Z,25.60
2019-05-21T05:12:07.874Z,24.70
2019-05-21T05:13:31.734Z,25.20
2019-05-21T05:14:13.824Z,25.50
2019-05-21T05:15:32.778Z,25.10
2019-05-21T05:16:28.378Z,26.00
2019-05-21T05:18:03.610Z,25.60
2019-05-21T05:18:35.457Z,25.10
2019-05-21T05:20:01.063Z,25.60
2019-05-21T05:20:49.094Z,25.10
2019-05-21T05:22:00.973Z,25.00
2019-05-21T05:23:03.027Z,24.80
2019-05-21T05:24:08.872Z,25.80
2019-05-21T05:25:21.988Z,25.00
2019-05-21T05:26:38.585Z,24.60
2019-05-21T05:27:21.904Z,25.90
2019-05-21T05:28:37.673Z,25.20
2019-05-21T05:30:03.899Z,25.30
2019-05-21T05:31:10.254Z,25.30
2019-05-21T05:31:51.007Z,25.30
2019-05-21T05:33:04.099Z,25.50
2019-05-21T05:33:59.214Z,26.50
2019-05-21T05:35:04.957Z,25.00
2019-05-21T05:36:20.125Z,25.90
2019-05-21T05:37:42.758Z,24.30
2019-05-21T05:38:32.828Z,25.90
2019-05-21T05:39:37.974Z,25.70
2019-05-21T05:40:28.950Z,25.30
2019-05-21T05:41:50.465Z,24.60
2019-05-21T05:42:57.432Z,24.30
2019-05-21T05:44:04.106Z,25.10
2019-05-21T05:45:04.000Z,25.00
2019-05-21T05:45:59.296Z,25.50
2019-05-21T05:47:26.235Z,25.70
2019-05-21T05:48:19.781Z,24.90
2019-05-21T05:49:31.163Z,25.30
2019-05-21T05:50:19.495Z,25.00
2019-05-21T05:51:38.456Z,24.50
2019-05-21T05:52:49.208Z,24.60
2019-05-21T05:54:07.578Z,25.30
2019-05-21T05:55:01.305Z,24.50
2019-05-21T05:56:18.309Z,23.90
2019-05-21T05:56:54.353Z,23.80
2019-05-21T05:58:12.701Z,24.60
2019-05-21T05:59:14.636Z,25.10
2019-05-21T06:00:39.533Z,25.10
2019-05-21T06:01:18.449Z,25.50
2019-05-21T06:02:23.679Z,23.80
2019-05-21T06:03:41.394Z,25.30
2019-05-21T06:04:38.746Z,24.90
2019-05-21T06:05:55.337Z,23.80
2019-05-21T06:06:48.690Z,24.50
2019-05-21T06:08:00.156Z,24.30
2019-05-21T06:08:59.159Z,24.80
2019-05-21T06:10:20.452Z,24.10
2019-05-21T06:11:29.783Z,24.20
2019-05-21T06:12:13.707Z,24.10
2019-05-21T06:13:15.777Z,23.10
2019-05-21T06:14:19.865Z,23.70
2019-05-21T06:15:21.000Z,24.20
2019-05-21T06:16:46.811Z,24.40
2019-05-21T06:17:39.857Z,24.60
2019-05-21T06:19:07.926Z,24.00
2019-05-21T06:20:16.732Z,24.10
2019-05-21T06:21:02.816Z,22.70
2019-05-21T06:21:59.131Z,22.10
2019-05-21T06:23:25.773Z,23.20
2019-05-21T06:24:20.763Z,21.50
2019-05-21T06:25:31.204Z,21.20
2019-05-21T06:26:28.243Z,22.00
2019-05-21T06:27:51.098Z,21.60
2019-05-21T06:28:34.194Z,21.30
2019-05-21T06:29:45.671Z,21.30
2019-05-21T06:30:40.251Z,21.80
2019-05-21T06:32:08.213Z,21.20
2019-05-21T06:33:03.199Z,21.40
2019-05-21T06:33:56.040Z,21.90
2019-05-21T06:35:12.946Z,21.20
2019-05-21T06:36:13.259Z,20.90
2019-05-21T06:37:26.881Z,21.80
2019-05-21T06:38:17.815Z,22.00
2019-05-21T06:39:28.331Z,22.00
2019-05-21T06:40:42.367Z,21.50
2019-05-21T06:41:45.346Z,21.40
2019-05-21T06:42:46.482Z,21.60
2019-05-21T06:44:03.176Z,21.60
2019-05-21T06:44:59.193Z,21.80
2019-05-21T06:46:11.279Z,21.10
2019-05-21T06:47:12.207Z,21.40
2019-05-21T06:48:19.184Z,22.10
2019-05-21T06:49:17.444Z,21.40
2019-05-21T06:50:21.447Z,20.80
2019-05-21T06:51:31.125Z,21.20
2019-05-21T06:52:43.096Z,21.50
2019-05-21T06:53:53.317Z,20.80
2019-05-21T06:55:00.394Z,21.50
2019-05-21T06:55:54.350Z,20.70
2019-05-21T06:56:51.386Z,21.40
2019-05-21T06:58:07.675Z,21.70
2019-05-21T06:59:04.711Z,21.00
2019-05-21T07:00:14.343Z,22.30
2019-05-21T07:01:27.667Z,21.40
2019-05-21T07:02:38.727Z,21.40
2019-05-21T07:03:26.554Z,22.00
2019-05-21T07:04:39.561Z,21.30
2019-05-21T07:05:38.350Z,20.50
2019-05-21T07:06:44.262Z,21.20
2019-05-21T07:07:46.042Z,21.20
2019-05-21T07:09:03.550Z,21.40
2019-05-21T07:10:14.515Z,21.60
2019-05-21T07:11:10.221Z,21.30
2019-05-21T07:12:17.292Z,21.40
2019-05-21T07:13:33.388Z,21.90
2019-05-21T07:14:29.493Z,23.90
2019-05-21T07:15:35.646Z,22.70
2019-05-21T07:16:42.929Z,21.80
2019-05-21T07:17:36.684Z,21.80
2019-05-21T07:18:52.356Z,22.70
2019-05-21T07:20:00.556Z,23.00
2019-05-21T07:20:54.828Z,22.20
2019-05-21T07:22:11.470Z,22.30
2019-05-21T07:23:21.976Z,22.00
2019-05-21T07:24:15.633Z,21.90
2019-05-21T07:25:19.634Z,21.70
2019-05-21T07:26:31.727Z,21.10
2019-05-21T07:27:35.930Z,21.60
2019-05-21T07:28:40.755Z,22.00
2019-05-21T07:29:40.963Z,21.60
2019-05-21T07:30:57.768Z,21.50
2019-05-21T07:32:00.057Z,21.30
2019-05-21T07:33:01.621Z,21.30
2019-05-21T07:34:19.699Z,21.20
2019-05-21T07:34:57.381Z,20.70
2019-05-21T07:36:21.142Z,20.80
2019-05-21T07:37:28.010Z,20.10
2019-05-21T07:38:52.131Z,19.90
2019-05-21T07:39:28.947Z,21.30
2019-05-21T07:40:47.903Z,20.50
2019-05-21T07:41:45.243Z,20.30
2019-05-21T07:43:07.997Z,20.90
2019-05-21T07:43:44.287Z,20.00
2019-05-21T07:45:09.231Z,19.70
2019-05-21T07:46:12.302Z,18.80
2019-05-21T07:47:15.588Z,19.50
2019-05-21T07:48:16.106Z,18.80
2019-05-21T07:49:41.102Z,18.90
2019-05-21T07:50:44.897Z,18.80
2019-05-21T07:51:35.889Z,19.30
2019-05-21T07:52:53.110Z,18.00
2019-05-21T07:53:50.138Z,18.40
2019-05-21T07:54:51.988Z,18.40
2019-05-21T07:55:53.429Z,18.50
2019-05-21T07:57:03.375Z,18.60
2019-05-21T07:58:04.400Z,18.40
2019-05-21T07:59:18.023Z,17.70
2019-05-21T08:00:24.490Z,18.70
2019-05-21T08:01:20.702Z,17.60
2019-05-21T08:02:27.161Z,18.30
2019-05-21T08:03:28.507Z,17.70
2019-05-21T08:04:45.195Z,18.90
2019-05-21T08:05:50.228Z,18.60
2019-05-21T08:07:07.125Z,18.30
2019-05-21T08:08:14.197Z,18.30
2019-05-21T08:09:11.352Z,18.20
2019-05-21T08:10:10.469Z,18.70
2019-05-21T08:11:18.005Z,18.00
2019-05-21T08:12:34.535Z,18.30
2019-05-21T08:13:22.430Z,18.50
2019-05-21T08:14:37.381Z,18.50
2019-05-21T08:15:41.286Z,18.60
2019-05-21T08:16:40.875Z,18.50
2019-05-21T08:18:02.181Z,18.30
2019-05-21T08:19:02.191Z,17.80
2019-05-21T08:20:08.442Z,17.50
2019-05-21T08:21:24.525Z,17.90
2019-05-21T08:22:21.561Z,18.00
2019-05-21T08:23:27.510Z,17.50
2019-05-21T08:24:16.762Z,18.20
2019-05-21T08:25:35.919Z,18.00
2019-05-21T08:26:37.254Z,18.00
2019-05-21T08:27:35.623Z,18.80
2019-05-21T08:28:51.611Z,17.70
2019-05-21T08:29:42.807Z,17.50
2019-05-21T08:30:54.589Z,18.00
2019-05-21T08:31:57.876Z,17.70
2019-05-21T08:33:15.802Z,18.40
2019-05-21T08:34:33.627Z,18.30
2019-05-21T08:35:18.067Z,17.90
2019-05-21T08:36:27.823Z,17.50
2019-05-21T08:37:31.803Z,17.00
2019-05-21T08:38:42.156Z,17.50
2019-05-21T08:39:34.069Z,17.90
2019-05-21T08:40:58.037Z,17.30
2019-05-21T08:41:51.809Z,17.40
2019-05-21T08:43:14.232Z,16.60
2019-05-21T08:44:03.178Z,16.60
2019-05-21T08:45:19.059Z,17.40
2019-05-21T08:46:07.295Z,16.80
2019-05-21T08:47:25.122Z,16.60
2019-05-21T08:48:10.885Z,16.50
2019-05-21T08:49:26.253Z,16.20
2019-05-21T08:50:48.995Z,17.10
2019-05-21T08:51:47.167Z,17.00
2019-05-21T08:52:45.115Z,16.20
2019-05-21T08:54:06.010Z,16.90
2019-05-21T08:55:05.206Z,16.30
2019-05-21T08:55:54.045Z,16.70
2019-05-21T08:57:09.006Z,16.50
2019-05-21T08:58:07.394Z,16.30
2019-05-21T08:59:22.942Z,16.70
2019-05-21T09:00:13.528Z,16.40
2019-05-21T09:01:41.898Z,16.20
2019-05-21T09:02:50.204Z,16.60
2019-05-21T09:04:10.075Z,16.50
2019-05-21T09:05:05.268Z,16.30
2019-05-21T09:06:13.159Z,16.40
2019-05-21T09:06:58.321Z,16.30
2019-05-21T09:08:05.701Z,16.60
2019-05-21T09:08:58.232Z,16.20
2019-05-21T09:10:24.349Z,16.20
2019-05-21T09:11:29.685Z,16.10
2019-05-21T09:12:28.354Z,16.20
2019-05-21T09:13:40.759Z,17.00
2019-05-21T09:14:33.604Z,15.70
2019-05-21T09:15:33.609Z,15.90
2019-05-21T09:16:45.692Z,15.70
2019-05-21T09:17:57.479Z,16.40
2019-05-21T09:19:04.855Z,17.10
2019-05-21T09:20:14.820Z,16.50
2019-05-21T09:20:57.706Z,15.80
2019-05-21T09:21:58.214Z,14.60
2019-05-21T09:23:31.912Z,14.20
2019-05-21T09:24:23.728Z,15.00
2019-05-21T09:26:02.956Z,14.90
2019-05-21T09:26:56.721Z,13.90
2019-05-21T09:27:59.588Z,14.40
2019-05-21T09:29:18.234Z,13.90
2019-05-21T09:30:12.709Z,13.60
2019-05-21T09:31:30.739Z,13.70
2019-05-21T09:32:31.056Z,13.90
2019-05-21T09:33:17.031Z,13.00
2019-05-21T09:34:47.394Z,12.20
2019-05-21T09:35:52.793Z,13.00
2019-05-21T09:36:28.240Z,12.30
2019-05-21T09:38:00.476Z,11.50
2019-05-21T09:38:34.065Z,12.00
2019-05-21T09:40:22.199Z,11.20
2019-05-21T09:40:56.096Z,11.80
2019-05-21T09:42:26.208Z,11.30
2019-05-21T09:43:13.208Z,11.90
2019-05-21T09:44:38.892Z,12.10
2019-05-21T09:45:47.528Z,12.80
2019-05-21T09:46:55.626Z,13.00
2019-05-21T09:48:01.298Z,12.60
2019-05-21T09:48:47.137Z,12.50
2019-05-21T09:49:42.027Z,12.10
2019-05-21T09:51:07.327Z,12.50
2019-05-21T09:51:49.819Z,12.60
2019-05-21T09:53:07.236Z,12.10
2019-05-21T09:53:54.750Z,12.00
2019-05-21T09:55:20.253Z,12.70
2019-05-21T09:56:41.356Z,12.90
2019-05-21T09:57:53.246Z,12.80
2019-05-21T09:58:28.168Z,12.20
2019-05-21T09:59:40.251Z,13.00
2019-05-21T10:01:08.723Z,13.00
2019-05-21T10:01:50.208Z,12.40
2019-05-21T10:03:06.282Z,12.80
2019-05-21T10:03:50.212Z,13.10
2019-05-21T10:05:13.769Z,13.30
2019-05-21T10:06:18.594Z,13.70
2019-05-21T10:07:15.422Z,13.90
2019-05-21T10:08:17.479Z,14.60
2019-05-21T10:09:20.147Z,14.40
2019-05-21T10:10:44.419Z,14.30
2019-05-21T10:11:39.819Z,14.70
2019-05-21T10:12:37.681Z,13.90
2019-05-21T10:13:50.586Z,14.60
2019-05-21T10:15:11.792Z,14.90
2019-05-21T10:16:06.268Z,15.60
2019-05-21T10:17:03.611Z,15.70
2019-05-21T10:18:09.862Z,15.80
2019-05-21T10:19:45.817Z,15.60
2019-05-21T10:20:28.624Z,16.00
2019-05-21T10:21:25.934Z,16.40
2019-05-21T10:22:38.258Z,16.70
2019-05-21T10:24:04.684Z,17.50
2019-05-21T10:24:48.818Z,18.20
2019-05-21T10:26:06.025Z,17.50
2019-05-21T10:26:53.130Z,17.40
2019-05-21T10:27:49.453Z,18.00
2019-05-21T10:29:13.117Z,17.60
2019-05-21T10:30:08.924Z,17.60
2019-05-21T10:31:28.283Z,18.70
2019-05-21T10:32:25.132Z,19.20
2019-05-21T10:33:34.952Z,19.00
2019-05-21T10:34:46.019Z,19.50
2019-05-21T10:35:50.325Z,19.30
2019-05-21T10:37:08.971Z,19.40
2019-05-21T10:37:34.059Z,19.60
2019-05-21T10:39:11.746Z,19.60
2019-05-21T10:40:08.174Z,20.60
2019-05-21T10:41:02.042Z,20.60
2019-05-21T10:42:14.231Z,19.70
2019-05-21T10:43:19.659Z,20.60
2019-05-21T10:44:24.897Z,19.50
2019-05-21T10:45:25.206Z,20.30
2019-05-21T10:46:30.338Z,20.40
2019-05-21T10:47:56.145Z,19.00
2019-05-21T10:48:49.191Z,18.40
2019-05-21T10:49:48.685Z,18.90
2019-05-21T10:51:06.614Z,18.50
2019-05-21T10:52:04.366Z,19.00
2019-05-21T10:53:08.570Z,19.00
2019-05-21T10:54:07.038Z,17.90
2019-05-21T10:55:32.527Z,19.00
2019-05-21T10:56:47.497Z,18.50
2019-05-21T10:57:22.252Z,18.20
2019-05-21T10:58:43.623Z,17.80
2019-05-21T10:59:41.584Z,17.50
2019-05-21T11:00:56.543Z,17.40
2019-05-21T11:01:45.589Z,18.50
2019-05-21T11:03:01.472Z,18.20
2019-05-21T11:04:11.553Z,17.90
2019-05-21T11:05:04.660Z,17.60
2019-05-21T11:06:10.818Z,17.10
2019-05-21T11:07:10.612Z,17.00
2019-05-21T11:08:30.484Z,17.00
2019-05-21T11:09:30.080Z,18.00
2019-05-21T11:10:36.745Z,17.10
2019-05-21T11:11:48.277Z,17.20
2019-05-21T11:12:52.738Z,16.90
2019-05-21T11:13:45.979Z,17.90
2019-05-21T11:14:50.084Z,17.60
2019-05-21T11:16:06.190Z,17.50
2019-05-21T11:17:04.845Z,17.70
2019-05-21T11:18:19.184Z,16.60
2019-05-21T11:19:27.396Z,17.60
2019-05-21T11:20:38.246Z,17.70
2019-05-21T11:21:35.484Z,17.80
2019-05-21T11:22:30.067Z,18.10
2019-05-21T11:23:47.002Z,18.40
2019-05-21T11:24:52.199Z,17.30
2019-05-21T11:25:46.078Z,18.20
2019-05-21T11:26:54.268Z,18.00
2019-05-21T11:28:01.345Z,17.50
2019-05-21T11:29:17.112Z,18.40
2019-05-21T11:30:15.403Z,18.50
2019-05-21T11:31:32.177Z,18.50
2019-05-21T11:32:24.197Z,18.00
2019-05-21T11:33:27.992Z,19.40
2019-05-21T11:34:43.269Z,18.90
2019-05-21T11:35:43.472Z,17.90
2019-05-21T11:36:49.620Z,19.00
2019-05-21T11:37:53.416Z,18.70
2019-05-21T11:39:09.931Z,19.00
2019-05-21T11:40:12.184Z,18.70
2019-05-21T11:41:08.491Z,19.10
2019-05-21T11:42:19.575Z,19.40
2019-05-21T11:43:19.353Z,19.30
2019-05-21T11:44:24.586Z,18.80
2019-05-21T11:45:36.674Z,19.60
2019-05-21T11:46:30.231Z,19.80
2019-05-21T11:47:47.644Z,19.50
2019-05-21T11:48:55.492Z,20.60
2019-05-21T11:50:11.836Z,19.80
2019-05-21T11:50:57.499Z,19.60
2019-05-21T11:52:09.383Z,20.20
2019-05-21T11:53:35.306Z,20.20
2019-05-21T11:54:47.394Z,20.60
2019-05-21T11:55:13.395Z,19.60
2019-05-21T11:56:31.639Z,20.10
2019-05-21T11:57:42.492Z,19.90
2019-05-21T11:58:45.784Z,19.80
2019-05-21T11:59:52.848Z,19.80
2019-05-21T12:00:41.495Z,20.60
2019-05-21T12:02:03.411Z,20.30
2019-05-21T12:02:52.583Z,20.50
2019-05-21T12:03:59.642Z,20.20
2019-05-21T12:05:21.162Z,20.00
2019-05-21T12:06:29.447Z,20.00
2019-05-21T12:07:31.413Z,20.30
2019-05-21T12:08:54.075Z,20.40
2019-05-21T12:09:58.754Z,20.20
2019-05-21T12:10:41.762Z,20.80
2019-05-21T12:11:44.135Z,20.70
2019-05-21T12:12:48.226Z,20.50
2019-05-21T12:13:56.223Z,19.70
2019-05-21T12:14:58.585Z,20.50
2019-05-21T12:16:17.956Z,20.50
2019-05-21T12:17:30.241Z,21.00
2019-05-21T12:18:07.309Z,21.00
2019-05-21T12:19:28.208Z,20.70
2019-05-21T12:20:43.268Z,21.20
2019-05-21T12:21:25.147Z,21.10
2019-05-21T12:22:53.314Z,20.50
2019-05-21T12:23:44.416Z,21.30
2019-05-21T12:24:39.812Z,21.10
2019-05-21T12:26:01.323Z,20.60
2019-05-21T12:27:19.146Z,21.20
2019-05-21T12:28:05.133Z,20.80
2019-05-21T12:29:32.001Z,20.50
2019-05-21T12:30:06.775Z,20.80
2019-05-21T12:31:37.195Z,21.50
2019-05-21T12:32:31.368Z,20.90
2019-05-21T12:33:46.458Z,20.70
2019-05-21T12:34:55.137Z,21.00
2019-05-21T12:36:03.647Z,20.40
2019-05-21T12:36:59.040Z,21.10
2019-05-21T12:37:48.397Z,20.80
2019-05-21T12:39:13.567Z,21.30
2019-05-21T12:40:29.578Z,21.30
2019-05-21T12:41:40.644Z,21.50
2019-05-21T12:42:37.376Z,20.50
2019-05-21T12:43:43.719Z,21.20
2019-05-21T12:44:47.746Z,21.00
2019-05-21T12:45:55.627Z,20.80
2019-05-21T12:47:03.621Z,20.60
2019-05-21T12:47:58.978Z,20.70
2019-05-21T12:48:40.485Z,21.70
2019-05-21T12:50:33.551Z,21.50
2019-05-21T12:51:28.323Z,20.40
2019-05-21T12:52:37.135Z,20.40
2019-05-21T12:53:53.938Z,21.10
2019-05-21T12:54:35.817Z,21.30
2019-05-21T12:55:36.029Z,20.80
2019-05-21T12:56:48.017Z,20.30
2019-05-21T12:59:02.576Z,21.20
2019-05-21T12:59:49.842Z,21.20
2019-05-21T13:01:05.060Z,20.80
2019-05-21T13:02:03.725Z,20.90
2019-05-21T13:02:57.997Z,21.40
2019-05-21T13:04:35.071Z,20.40
2019-05-21T13:05:11.065Z,19.90
2019-05-21T13:06:22.176Z,20.00
2019-05-21T13:07:13.942Z,21.00
2019-05-21T13:08:45.847Z,20.20
2019-05-21T13:10:26.787Z,20.30
2019-05-21T13:12:18.944Z,20.20
2019-05-21T13:13:50.079Z,20.40
2019-05-21T13:14:42.101Z,19.90
2019-05-21T13:15:46.305Z,20.80
2019-05-21T13:17:01.058Z,20.00
2019-05-21T13:18:31.703Z,20.50
2019-05-21T13:19:12.027Z,20.90
2019-05-21T13:20:30.363Z,20.50
2019-05-21T13:21:25.254Z,20.00
2019-05-21T13:22:28.328Z,20.80
2019-05-21T13:24:15.848Z,20.90
2019-05-21T13:25:54.257Z,20.30
2019-05-21T13:26:40.341Z,20.70
2019-05-21T13:27:58.572Z,20.90
2019-05-21T13:29:30.326Z,21.40
2019-05-21T13:30:58.490Z,20.70
2019-05-21T13:32:23.383Z,20.80
2019-05-21T13:34:18.076Z,20.20
2019-05-21T13:35:52.380Z,20.10
2019-05-21T13:36:35.595Z,21.40
2019-05-21T13:38:22.401Z,20.50
2019-05-21T13:39:10.934Z,21.00
2019-05-21T13:40:35.622Z,20.70
2019-05-21T13:41:55.711Z,20.40
2019-05-21T13:42:52.735Z,19.80
2019-05-21T13:43:40.354Z,19.50
2019-05-21T13:45:00.739Z,20.60
2019-05-21T13:46:05.045Z,20.60
2019-05-21T13:47:00.963Z,20.30
2019-05-21T13:48:12.942Z,21.30
2019-05-21T13:49:07.831Z,20.20
2019-05-21T13:50:10.002Z,20.80
2019-05-21T13:51:19.620Z,20.70
2019-05-21T13:52:27.936Z,20.40
2019-05-21T13:53:36.631Z,20.70
2019-05-21T13:54:36.108Z,20.40
2019-05-21T13:56:11.775Z,20.40
2019-05-21T13:56:53.041Z,20.80
2019-05-21T13:58:39.028Z,20.60
2019-05-21T13:59:23.974Z,20.50
2019-05-21T14:00:50.120Z,20.90
2019-05-21T14:01:40.288Z,21.20
2019-05-21T14:02:33.248Z,20.10
2019-05-21T14:03:54.204Z,20.30
2019-05-21T14:04:33.026Z,20.90
2019-05-21T14:06:04.362Z,21.10
2019-05-21T14:06:53.206Z,21.50
2019-05-21T14:08:05.399Z,21.20
2019-05-21T14:08:59.368Z,20.90
2019-05-21T14:10:21.479Z,20.00
2019-05-21T14:11:24.379Z,20.40
2019-05-21T14:12:23.351Z,20.40
2019-05-21T14:13:58.377Z,20.10
2019-05-21T14:14:34.434Z,20.40
2019-05-21T14:15:31.465Z,20.40
2019-05-21T14:16:35.273Z,20.60